Main page
METAR-TAF:

METAR-TAF

Airports :

Badajoz Airport

Badajoz, Spain

latitude: 38-53N, longitude: 006-49W, elevation: 185 m

Current weather observation

The report was made 27 minutes ago, at 19:00 UTC
Wind 1 kt from variable directions
Temperature 9°C
Humidity 66%
Pressure 1023 hPa
Visibility 10 km or more
no clouds below 1500 m and no cumulonimbus

METAR: LEBZ 211900Z VRB01KT CAVOK 09/03 Q1023

Time: 20:27 (19:27 UTC)

Forecast

The report was made 5 hours and 27 minutes ago, at 14:00 UTC
Forecast valid from 21 at 15 UTC to 22 at 15 UTC
Wind 4 kt from the East/Northeast
Visibility 10 km or more
no clouds below 1500 m and no cumulonimbus

TAF: LEBZ 211400Z 2115/2215 07004KT CAVOK TX14/2115Z TN00/2207Z

Weather observations and forecasts of more than 4000 airports (METAR and TAF reports).

The available stations are represented by yellow and red dots on the map.

Hover mouse over dot to see the name of the station.

Then click to see weather observations and forecasts.

To change the map : click on the green buttons with a black cross to zoom in, on the green button with a dash to zoom out, or on the green arrows for adjacent maps.


METAR-TAF: